Time;durP1;ratioP1;P1;durP2;ratioP2;P2;SDS_P1;SDS_P2;PMS_P1;PMS_P2;Temp;Humidity;BMP_temperature;BMP_pressure;BME280_temperature;BME280_humidity;BME280_pressure;Samples;Min_cycle;Max_cycle;Signal;HPM_P1;HPM_P2
2020/12/07 00:00:44;;;;;;;105.07;54.90;;;5.00;99.90;;;;;;5052266;28;20544;-72
2020/12/07 00:03:12;;;;;;;93.15;51.65;;;5.00;99.90;;;;;;5052403;28;20033;-72
2020/12/07 00:05:37;;;;;;;104.05;55.00;;;5.10;99.90;;;;;;5051377;28;20021;-72
2020/12/07 00:08:03;;;;;;;104.50;55.47;;;5.10;99.90;;;;;;5055480;28;20389;-73
2020/12/07 00:10:30;;;;;;;100.45;52.15;;;5.10;99.90;;;;;;5055792;28;20032;-72
2020/12/07 00:12:56;;;;;;;99.88;53.90;;;5.10;99.90;;;;;;5051801;28;20433;-72
2020/12/07 00:15:21;;;;;;;97.50;55.17;;;5.10;99.90;;;;;;5054897;28;20024;-72
2020/12/07 00:17:47;;;;;;;109.05;58.47;;;5.00;99.90;;;;;;5053497;28;20064;-73
2020/12/07 00:20:13;;;;;;;108.22;56.80;;;5.00;99.90;;;;;;5061465;28;20021;-72
2020/12/07 00:22:38;;;;;;;96.55;53.15;;;5.00;99.90;;;;;;5058764;28;20393;-73
2020/12/07 00:25:05;;;;;;;120.22;58.92;;;4.90;99.90;;;;;;5060520;28;20052;-72
2020/12/07 00:27:33;;;;;;;111.05;60.22;;;5.00;99.90;;;;;;5061237;28;20028;-72
2020/12/07 00:30:00;;;;;;;122.18;68.43;;;4.90;99.90;;;;;;5060577;28;20055;-72
2020/12/07 00:32:27;;;;;;;121.22;63.67;;;5.00;99.90;;;;;;5055475;28;20028;-72
2020/12/07 00:34:54;;;;;;;114.40;60.22;;;5.00;99.90;;;;;;5053660;28;20029;-72
2020/12/07 00:37:20;;;;;;;123.30;60.50;;;5.00;99.90;;;;;;5050231;28;20037;-72
2020/12/07 00:39:46;;;;;;;134.85;68.25;;;5.00;99.90;;;;;;5051771;28;20032;-72
2020/12/07 00:42:11;;;;;;;123.55;64.75;;;4.90;99.90;;;;;;5052217;28;20044;-72
2020/12/07 00:44:39;;;;;;;123.18;65.65;;;4.90;99.90;;;;;;5057128;28;20023;-73
2020/12/07 00:47:06;;;;;;;122.10;62.05;;;4.90;99.90;;;;;;5058138;28;20490;-73
2020/12/07 00:49:32;;;;;;;128.30;65.40;;;5.00;99.90;;;;;;5054381;28;20035;-73
2020/12/07 00:51:58;;;;;;;128.98;62.33;;;5.00;99.90;;;;;;5051473;28;20029;-73
2020/12/07 00:54:24;;;;;;;116.40;60.92;;;5.00;99.90;;;;;;5051066;28;20031;-73
2020/12/07 00:56:57;;;;;;;119.90;60.00;;;5.00;99.90;;;;;;5053275;28;20432;-73
2020/12/07 00:59:23;;;;;;;108.80;55.47;;;4.90;99.90;;;;;;5059851;28;20035;-72
2020/12/07 01:01:50;;;;;;;105.13;55.88;;;4.90;99.90;;;;;;5053356;28;20028;-72
2020/12/07 01:04:16;;;;;;;112.30;56.53;;;4.90;99.90;;;;;;5052882;28;20067;-72
2020/12/07 01:06:45;;;;;;;107.63;56.08;;;4.90;99.90;;;;;;5055741;28;20033;-73
2020/12/07 01:09:18;;;;;;;120.00;61.53;;;4.90;99.90;;;;;;5054655;28;20021;-73
2020/12/07 01:11:45;;;;;;;128.63;65.65;;;4.90;99.90;;;;;;5053941;28;20041;-73
2020/12/07 01:14:12;;;;;;;126.35;62.03;;;5.00;99.90;;;;;;5052355;28;20029;-73
2020/12/07 01:16:38;;;;;;;111.07;58.90;;;5.00;99.90;;;;;;5053617;28;20045;-73
2020/12/07 01:19:08;;;;;;;109.22;55.65;;;4.90;99.90;;;;;;5056957;28;20021;-73
2020/12/07 01:21:34;;;;;;;120.35;60.78;;;5.00;99.90;;;;;;5053878;28;20025;-73
2020/12/07 01:24:00;;;;;;;119.72;62.60;;;5.00;99.90;;;;;;5052813;28;20835;-73
2020/12/07 01:26:26;;;;;;;116.40;57.58;;;5.00;99.90;;;;;;5055476;28;20060;-74
2020/12/07 01:28:53;;;;;;;121.63;59.20;;;5.00;99.90;;;;;;5052113;28;20032;-73
2020/12/07 01:31:19;;;;;;;116.15;58.85;;;5.00;99.90;;;;;;5049523;28;20088;-73
2020/12/07 01:33:45;;;;;;;121.85;62.92;;;4.90;99.90;;;;;;5052202;28;20116;-73
2020/12/07 01:36:11;;;;;;;128.25;64.90;;;4.90;99.90;;;;;;5049333;28;20500;-73
2020/12/07 01:38:37;;;;;;;128.38;66.13;;;4.90;99.90;;;;;;5053461;28;20022;-74
2020/12/07 01:41:03;;;;;;;126.22;64.80;;;4.90;99.90;;;;;;5055039;28;20393;-73
2020/12/07 01:43:28;;;;;;;121.13;62.90;;;5.00;99.90;;;;;;5049964;28;20028;-73
2020/12/07 01:45:56;;;;;;;120.20;64.18;;;5.00;99.90;;;;;;5052458;28;20021;-74
2020/12/07 01:48:24;;;;;;;128.38;64.85;;;5.00;99.90;;;;;;5053855;28;20037;-73
2020/12/07 01:50:51;;;;;;;126.07;65.18;;;5.00;99.90;;;;;;5055123;28;20039;-73
2020/12/07 01:53:17;;;;;;;114.88;60.10;;;4.90;99.90;;;;;;5052994;28;20489;-73
2020/12/07 01:55:45;;;;;;;125.30;66.07;;;4.90;99.90;;;;;;5054307;28;20029;-73
2020/12/07 01:58:11;;;;;;;107.55;56.70;;;4.90;99.90;;;;;;5053286;28;20100;-73
2020/12/07 02:00:37;;;;;;;114.90;56.53;;;4.90;99.90;;;;;;5051629;28;20116;-74
2020/12/07 02:03:03;;;;;;;110.55;55.58;;;5.00;99.90;;;;;;5052755;28;20021;-73
2020/12/07 02:05:29;;;;;;;108.90;55.78;;;4.90;99.90;;;;;;5053817;28;20043;-74
2020/12/07 02:08:10;;;;;;;111.88;56.70;;;4.90;99.90;;;;;;5053154;28;20075;-73
2020/12/07 02:10:36;;;;;;;107.88;53.40;;;4.90;99.90;;;;;;5055098;28;20021;-74
2020/12/07 02:13:02;;;;;;;106.50;54.05;;;4.80;99.90;;;;;;5054651;28;20036;-73
2020/12/07 02:15:27;;;;;;;107.43;51.72;;;4.90;99.90;;;;;;5055940;28;20131;-74
2020/12/07 02:17:53;;;;;;;100.30;52.33;;;4.90;99.90;;;;;;5052573;28;20044;-73
2020/12/07 02:20:19;;;;;;;107.63;51.33;;;4.90;99.90;;;;;;5054460;28;20102;-73
2020/12/07 02:22:44;;;;;;;119.57;56.28;;;5.00;99.90;;;;;;5054751;28;20523;-73
2020/12/07 02:25:10;;;;;;;119.55;58.90;;;4.90;99.90;;;;;;5053770;28;20032;-74
2020/12/07 02:27:35;;;;;;;112.20;59.35;;;4.90;99.90;;;;;;5055002;28;20021;-73
2020/12/07 02:30:02;;;;;;;105.10;53.00;;;4.90;99.90;;;;;;5052206;28;20053;-73
2020/12/07 02:32:27;;;;;;;106.45;54.90;;;4.90;99.90;;;;;;5061822;28;20714;-73
2020/12/07 02:34:53;;;;;;;114.90;59.83;;;5.00;99.90;;;;;;5052325;28;20028;-73
2020/12/07 02:37:19;;;;;;;102.50;54.30;;;5.00;99.90;;;;;;5051013;28;20043;-73
2020/12/07 02:39:44;;;;;;;110.65;55.83;;;5.00;99.90;;;;;;5052221;28;20025;-73
2020/12/07 02:42:10;;;;;;;111.53;54.00;;;5.00;99.90;;;;;;5056252;28;20037;-74
2020/12/07 02:44:36;;;;;;;107.68;51.83;;;5.00;99.90;;;;;;5050566;28;20084;-73
2020/12/07 02:47:01;;;;;;;115.93;57.22;;;5.00;99.90;;;;;;5052370;28;20044;-73
2020/12/07 02:49:27;;;;;;;124.30;58.80;;;4.90;99.90;;;;;;5053752;28;20104;-73
2020/12/07 02:51:53;;;;;;;121.57;62.17;;;4.90;99.90;;;;;;5054754;28;20055;-73
2020/12/07 02:54:19;;;;;;;110.40;55.63;;;4.90;99.90;;;;;;5055764;28;20485;-73
2020/12/07 02:56:45;;;;;;;117.80;58.42;;;4.90;99.90;;;;;;5061206;28;20033;-73
2020/12/07 02:59:10;;;;;;;112.22;55.40;;;4.80;99.90;;;;;;5053041;28;20032;-73
2020/12/07 03:01:36;;;;;;;126.65;61.70;;;4.80;99.90;;;;;;5063749;28;20037;-73
2020/12/07 03:04:02;;;;;;;119.82;61.28;;;4.80;99.90;;;;;;5057328;28;20029;-73
2020/12/07 03:06:28;;;;;;;125.05;62.35;;;4.80;99.90;;;;;;5053866;28;20036;-73
2020/12/07 03:08:54;;;;;;;129.57;63.10;;;4.80;99.90;;;;;;5060803;28;20025;-73
2020/12/07 03:11:21;;;;;;;115.43;60.78;;;4.80;99.90;;;;;;5056453;28;20029;-73
2020/12/07 03:13:47;;;;;;;122.72;63.40;;;4.80;99.90;;;;;;5065783;28;20032;-73
2020/12/07 03:16:13;;;;;;;130.52;67.07;;;4.70;99.90;;;;;;5054395;28;20045;-73
2020/12/07 03:18:38;;;;;;;126.80;64.25;;;4.80;99.90;;;;;;5060084;28;20025;-73
2020/12/07 03:21:04;;;;;;;137.45;66.78;;;4.70;99.90;;;;;;5055549;28;20029;-73
2020/12/07 03:23:30;;;;;;;130.77;67.18;;;4.70;99.90;;;;;;5057637;28;20049;-73
2020/12/07 03:25:55;;;;;;;123.57;66.28;;;4.70;99.90;;;;;;5053764;28;20100;-73
2020/12/07 03:28:21;;;;;;;122.85;62.28;;;4.70;99.90;;;;;;5060228;28;20028;-72
2020/12/07 03:30:46;;;;;;;121.82;63.47;;;4.80;99.90;;;;;;5053645;28;20035;-73
2020/12/07 03:33:12;;;;;;;124.20;64.55;;;4.80;99.90;;;;;;5059025;28;20074;-72
2020/12/07 03:35:38;;;;;;;119.53;61.47;;;4.70;99.90;;;;;;5058930;28;20032;-73
2020/12/07 03:38:03;;;;;;;119.90;60.83;;;4.70;99.90;;;;;;5055851;28;20037;-73
2020/12/07 03:40:33;;;;;;;114.82;59.63;;;4.70;99.90;;;;;;5056692;28;20033;-73
2020/12/07 03:42:59;;;;;;;125.28;62.30;;;4.60;99.90;;;;;;5060197;28;20037;-72
2020/12/07 03:45:25;;;;;;;135.70;64.43;;;4.60;99.90;;;;;;5057275;28;20025;-72
2020/12/07 03:47:51;;;;;;;132.57;62.17;;;4.60;99.90;;;;;;5059073;28;20071;-73
2020/12/07 03:50:16;;;;;;;116.45;58.53;;;4.70;99.90;;;;;;5057806;28;20024;-73
2020/12/07 03:52:42;;;;;;;128.93;62.53;;;4.70;99.90;;;;;;5058656;28;20048;-73
2020/12/07 03:55:08;;;;;;;128.27;61.13;;;4.80;99.90;;;;;;5060338;28;20045;-72
2020/12/07 03:57:33;;;;;;;126.93;65.45;;;4.80;99.90;;;;;;5070367;28;20534;-73
2020/12/07 03:59:59;;;;;;;184.23;100.45;;;4.70;99.90;;;;;;5058907;28;20029;-73
2020/12/07 04:02:26;;;;;;;132.30;65.88;;;4.80;99.90;;;;;;5065298;28;20060;-73
2020/12/07 04:04:59;;;;;;;140.10;64.82;;;4.80;99.90;;;;;;5058583;28;20021;-74
2020/12/07 04:07:24;;;;;;;131.88;73.10;;;4.90;99.90;;;;;;5057863;28;20024;-73
2020/12/07 04:09:50;;;;;;;126.75;65.95;;;4.80;99.90;;;;;;5055683;28;20029;-73
2020/12/07 04:12:15;;;;;;;145.93;71.97;;;4.80;99.90;;;;;;5057894;28;20033;-73
2020/12/07 04:14:41;;;;;;;124.63;66.55;;;4.80;99.90;;;;;;5055527;28;20032;-73
2020/12/07 04:17:07;;;;;;;125.70;67.30;;;4.80;99.90;;;;;;5054374;28;20029;-73
2020/12/07 04:19:32;;;;;;;145.02;73.55;;;4.70;99.90;;;;;;5058282;28;20029;-73
2020/12/07 04:21:58;;;;;;;143.57;71.78;;;4.80;99.90;;;;;;5055218;28;20056;-73
2020/12/07 04:24:23;;;;;;;140.55;74.50;;;4.90;99.90;;;;;;5058271;28;20025;-72
2020/12/07 04:26:49;;;;;;;141.77;72.85;;;4.90;99.90;;;;;;5059005;28;20029;-73
2020/12/07 04:29:15;;;;;;;141.43;67.57;;;4.80;99.90;;;;;;5054251;28;20025;-73
2020/12/07 04:31:40;;;;;;;135.93;66.68;;;4.80;99.90;;;;;;5061347;28;20035;-73
2020/12/07 04:34:06;;;;;;;126.72;61.88;;;4.90;99.90;;;;;;5055930;28;20078;-73
2020/12/07 04:36:32;;;;;;;120.07;63.10;;;4.90;99.90;;;;;;5055978;28;20064;-73
2020/12/07 04:38:57;;;;;;;123.05;64.00;;;4.90;99.90;;;;;;5051457;28;20036;-72
2020/12/07 04:41:23;;;;;;;120.25;63.15;;;4.90;99.90;;;;;;5057385;28;20520;-73
2020/12/07 04:43:49;;;;;;;120.32;61.53;;;4.90;99.90;;;;;;5057940;28;20310;-73
2020/12/07 04:46:15;;;;;;;125.65;62.80;;;4.90;99.90;;;;;;5051364;28;20025;-71
2020/12/07 04:48:42;;;;;;;138.75;65.60;;;4.90;99.90;;;;;;5051632;28;20025;-71
2020/12/07 04:51:09;;;;;;;133.68;67.85;;;4.90;99.90;;;;;;5051986;28;20512;-71
2020/12/07 04:53:36;;;;;;;134.00;65.82;;;4.90;99.90;;;;;;5051676;28;20036;-71
2020/12/07 04:56:02;;;;;;;137.27;68.95;;;4.90;99.90;;;;;;5052999;28;20086;-71
2020/12/07 04:58:28;;;;;;;123.60;63.08;;;4.80;99.90;;;;;;5062221;28;20112;-71
2020/12/07 05:00:54;;;;;;;141.20;67.28;;;4.80;99.90;;;;;;5058299;28;20081;-71
2020/12/07 05:03:20;;;;;;;140.80;68.97;;;4.90;99.90;;;;;;5053015;28;20104;-72
2020/12/07 05:05:50;;;;;;;133.57;65.53;;;4.90;99.90;;;;;;5059858;28;20572;-72
2020/12/07 05:08:16;;;;;;;144.75;71.65;;;4.90;99.90;;;;;;5055990;28;20424;-71
2020/12/07 05:10:43;;;;;;;134.90;68.82;;;4.90;99.90;;;;;;5054500;28;20032;-72
2020/12/07 05:15:40;;;;;;;149.38;71.20;;;4.80;99.90;;;;;;5053013;28;20052;-71
2020/12/07 05:18:06;;;;;;;147.93;69.60;;;4.80;99.90;;;;;;5055937;28;20142;-71
2020/12/07 05:20:31;;;;;;;88.78;44.85;;;4.80;99.90;;;;;;5059394;28;20099;-71
2020/12/07 05:22:59;;;;;;;151.23;76.28;;;4.90;99.90;;;;;;5054897;28;20031;-71
2020/12/07 05:25:25;;;;;;;154.02;73.90;;;4.80;99.90;;;;;;5054595;28;20104;-71
2020/12/07 05:27:52;;;;;;;157.30;74.97;;;4.80;99.90;;;;;;5061689;28;20415;-71
2020/12/07 05:32:44;;;;;;;176.57;79.28;;;4.80;99.90;;;;;;5058841;28;20124;-71
2020/12/07 05:35:09;;;;;;;191.82;81.25;;;4.80;99.90;;;;;;5070334;28;20051;-71
2020/12/07 05:37:37;;;;;;;195.40;84.38;;;4.90;99.90;;;;;;5058043;28;20029;-72
2020/12/07 05:40:05;;;;;;;203.43;81.88;;;4.90;99.90;;;;;;5057649;28;20097;-71
2020/12/07 05:42:32;;;;;;;176.55;76.45;;;4.80;99.90;;;;;;5066928;28;20028;-72
2020/12/07 05:44:59;;;;;;;190.95;79.22;;;4.90;99.90;;;;;;5062449;28;20025;-72
2020/12/07 05:47:25;;;;;;;189.27;79.47;;;4.80;99.90;;;;;;5055565;28;20020;-71
2020/12/07 05:49:53;;;;;;;177.18;78.15;;;4.90;99.90;;;;;;5057729;28;20067;-71
2020/12/07 05:52:27;;;;;;;173.18;76.03;;;4.90;99.90;;;;;;5060313;28;20020;-71
2020/12/07 05:54:55;;;;;;;187.90;85.05;;;4.90;99.90;;;;;;5057037;28;20052;-71
2020/12/07 05:57:25;;;;;;;165.05;76.05;;;4.90;99.90;;;;;;5063308;28;20036;-72
2020/12/07 05:59:55;;;;;;;174.68;77.22;;;4.90;99.90;;;;;;5058409;28;20029;-72
2020/12/07 06:02:22;;;;;;;200.82;75.82;;;5.00;99.90;;;;;;5061313;28;20543;-71
2020/12/07 06:04:48;;;;;;;160.43;69.97;;;5.00;99.90;;;;;;5060964;28;20029;-72
2020/12/07 06:07:15;;;;;;;160.20;67.28;;;5.00;99.90;;;;;;5059410;28;20025;-71
2020/12/07 06:09:44;;;;;;;193.10;75.22;;;5.00;99.90;;;;;;5066128;28;20048;-71
2020/12/07 06:12:15;;;;;;;184.98;69.82;;;5.00;99.90;;;;;;5058137;28;20435;-71
2020/12/07 06:14:42;;;;;;;162.52;69.05;;;5.00;99.90;;;;;;5060627;28;20477;-71
2020/12/07 06:17:11;;;;;;;167.15;69.28;;;5.00;99.90;;;;;;5059286;28;20091;-71
2020/12/07 06:19:38;;;;;;;159.80;66.68;;;4.90;99.90;;;;;;5055670;28;20025;-71
2020/12/07 06:22:06;;;;;;;182.15;72.53;;;4.90;99.90;;;;;;5067054;28;20473;-72
2020/12/07 06:24:40;;;;;;;190.05;70.53;;;4.90;99.90;;;;;;5057564;28;20144;-71
2020/12/07 06:27:08;;;;;;;175.05;69.80;;;4.90;99.90;;;;;;5056798;28;20025;-71
2020/12/07 06:29:35;;;;;;;174.38;69.13;;;4.90;99.90;;;;;;5063496;28;20020;-72
2020/12/07 06:32:00;;;;;;;176.40;68.13;;;4.80;99.90;;;;;;5053981;28;20378;-72
2020/12/07 06:34:37;;;;;;;186.77;70.50;;;4.80;99.90;;;;;;5057861;28;20025;-71
2020/12/07 06:37:12;;;;;;;185.98;70.97;;;4.80;99.90;;;;;;5065580;28;20032;-72
2020/12/07 06:39:46;;;;;;;171.77;67.47;;;4.90;99.90;;;;;;5060911;28;20403;-71
2020/12/07 06:42:14;;;;;;;93.30;42.50;;;4.90;99.90;;;;;;5054769;28;20032;-72
2020/12/07 06:44:44;;;;;;;193.52;68.72;;;4.90;99.90;;;;;;5060677;28;20024;-72
2020/12/07 06:47:19;;;;;;;164.15;65.10;;;4.90;99.90;;;;;;5059119;28;20031;-71
2020/12/07 06:52:17;;;;;;;168.05;69.40;;;4.90;99.90;;;;;;5054545;28;20529;-71
2020/12/07 06:55:05;;;;;;;212.63;76.75;;;4.90;99.90;;;;;;5053459;28;20055;-72
2020/12/07 06:57:42;;;;;;;160.90;63.58;;;4.90;99.90;;;;;;5053785;28;20040;-71
2020/12/07 07:00:11;;;;;;;166.18;64.13;;;4.90;99.90;;;;;;5056550;28;20024;-72
2020/12/07 07:02:38;;;;;;;192.32;72.10;;;4.90;99.90;;;;;;5055455;28;20432;-71
2020/12/07 07:05:05;;;;;;;190.95;71.30;;;4.80;99.90;;;;;;5056225;28;20028;-72
2020/12/07 07:07:32;;;;;;;203.75;81.38;;;4.80;99.90;;;;;;5053379;28;20048;-72
2020/12/07 07:09:59;;;;;;;215.98;73.35;;;4.70;99.90;;;;;;5052846;28;20040;-72
2020/12/07 07:12:24;;;;;;;209.82;75.25;;;4.70;99.90;;;;;;5066332;28;20115;-72
2020/12/07 07:14:53;;;;;;;194.65;71.28;;;4.70;99.90;;;;;;5063810;28;20170;-72
2020/12/07 07:17:23;;;;;;;220.30;77.50;;;4.80;99.90;;;;;;5060373;28;20044;-72
2020/12/07 07:19:48;;;;;;;214.07;76.13;;;4.80;99.90;;;;;;5052044;28;20374;-73
2020/12/07 07:22:15;;;;;;;217.70;77.20;;;4.80;99.90;;;;;;5057149;28;20034;-73
2020/12/07 07:24:47;;;;;;;214.82;72.85;;;4.80;99.90;;;;;;5053614;28;20020;-73
2020/12/07 07:29:57;;;;;;;228.90;79.20;;;4.90;99.90;;;;;;5056945;28;20073;-73
2020/12/07 07:32:23;;;;;;;229.77;79.90;;;4.80;99.90;;;;;;5060746;28;20017;-72
2020/12/07 07:34:49;;;;;;;255.45;83.32;;;4.90;99.90;;;;;;5058682;28;20033;-72
2020/12/07 07:37:18;;;;;;;216.90;77.13;;;4.80;99.90;;;;;;5057116;28;20044;-72
2020/12/07 07:39:46;;;;;;;289.88;92.30;;;4.80;99.90;;;;;;5055792;28;20052;-72
2020/12/07 07:42:14;;;;;;;245.93;80.93;;;4.80;99.90;;;;;;5060951;28;20492;-72
2020/12/07 07:44:42;;;;;;;246.40;83.57;;;4.90;99.90;;;;;;5059111;28;20032;-72
2020/12/07 07:47:15;;;;;;;235.68;84.80;;;4.80;99.90;;;;;;5055338;28;20033;-72
2020/12/07 08:16:42;;;;;;;215.25;78.70;;;4.70;99.90;;;;;;5050048;28;20051;-72
2020/12/07 08:19:22;;;;;;;214.27;74.10;;;4.70;99.90;;;;;;5051669;28;20032;-72
2020/12/07 08:21:47;;;;;;;194.68;75.60;;;4.70;99.90;;;;;;5054084;28;20021;-72
2020/12/07 08:24:13;;;;;;;197.90;76.75;;;4.60;99.90;;;;;;5055700;28;20491;-72
2020/12/07 08:26:44;;;;;;;210.00;74.95;;;4.60;99.90;;;;;;5055080;28;20078;-72
2020/12/07 08:29:11;;;;;;;211.48;72.85;;;4.60;99.90;;;;;;5059855;28;20103;-72
2020/12/07 08:31:38;;;;;;;182.43;67.78;;;4.60;99.90;;;;;;5055110;28;20020;-72
2020/12/07 08:34:08;;;;;;;190.27;73.88;;;4.70;99.90;;;;;;5059380;28;20091;-72
2020/12/07 08:36:34;;;;;;;204.65;74.03;;;4.70;99.90;;;;;;5059496;28;20124;-72
2020/12/07 08:39:00;;;;;;;202.40;73.75;;;4.70;99.90;;;;;;5053873;28;20039;-71
2020/12/07 08:41:28;;;;;;;206.63;91.47;;;4.70;99.90;;;;;;5052306;28;20079;-71
2020/12/07 08:43:59;;;;;;;198.57;74.05;;;4.70;99.90;;;;;;5060985;28;20188;-72
2020/12/07 08:46:28;;;;;;;184.65;68.80;;;4.70;99.90;;;;;;5051344;28;20044;-71
2020/12/07 08:48:55;;;;;;;171.85;65.97;;;4.60;99.90;;;;;;5055101;28;20021;-72
2020/12/07 08:51:23;;;;;;;184.80;76.82;;;4.70;99.90;;;;;;5054559;28;20434;-72
2020/12/07 08:53:49;;;;;;;184.60;72.32;;;4.80;99.90;;;;;;5051321;28;20025;-72
2020/12/07 08:56:15;;;;;;;183.23;73.90;;;4.70;99.90;;;;;;5057040;28;20530;-72
2020/12/07 08:58:41;;;;;;;177.43;74.85;;;4.70;99.90;;;;;;5056058;28;20055;-72
2020/12/07 09:01:08;;;;;;;171.02;69.95;;;4.60;99.90;;;;;;5059357;28;20024;-72
2020/12/07 09:03:35;;;;;;;167.75;70.45;;;4.60;99.90;;;;;;5057646;28;20025;-72
2020/12/07 09:06:02;;;;;;;164.20;70.78;;;4.60;99.90;;;;;;5054696;28;20476;-72
2020/12/07 09:08:28;;;;;;;191.75;70.70;;;4.60;99.90;;;;;;5062104;28;20032;-72
2020/12/07 09:10:54;;;;;;;183.10;71.05;;;4.60;99.90;;;;;;5061119;28;20039;-72
2020/12/07 09:13:19;;;;;;;176.90;70.40;;;4.70;99.90;;;;;;5063589;28;20481;-72
2020/12/07 09:15:45;;;;;;;176.52;68.82;;;4.70;99.90;;;;;;5053949;28;20037;-72
2020/12/07 09:18:10;;;;;;;166.70;70.03;;;4.70;99.90;;;;;;5054718;28;20029;-72
2020/12/07 09:20:36;;;;;;;187.95;74.10;;;4.70;99.90;;;;;;5056306;28;20017;-72
2020/12/07 09:23:01;;;;;;;168.27;68.88;;;4.70;99.90;;;;;;5058029;28;20029;-72
2020/12/07 09:25:27;;;;;;;165.57;67.03;;;4.80;99.90;;;;;;5058522;28;20476;-72
2020/12/07 09:27:53;;;;;;;177.20;73.85;;;4.80;99.90;;;;;;5051606;28;20485;-72
2020/12/07 09:30:19;;;;;;;177.95;69.15;;;4.80;99.90;;;;;;5055387;28;20021;-72
2020/12/07 09:32:44;;;;;;;183.80;72.03;;;4.80;99.90;;;;;;5054025;28;20037;-72
2020/12/07 09:35:10;;;;;;;179.27;67.00;;;4.80;99.90;;;;;;5053974;28;20036;-72
2020/12/07 09:37:37;;;;;;;177.43;67.47;;;4.80;99.90;;;;;;5055734;28;20037;-72
2020/12/07 09:40:07;;;;;;;173.13;69.28;;;4.70;99.90;;;;;;5054805;28;20388;-72
2020/12/07 09:42:33;;;;;;;183.63;81.05;;;4.70;99.90;;;;;;5055469;28;20028;-72
2020/12/07 09:44:59;;;;;;;185.82;75.50;;;4.70;99.90;;;;;;5055789;28;20032;-72
2020/12/07 09:47:26;;;;;;;166.45;64.68;;;4.70;99.90;;;;;;5059252;28;20029;-72
2020/12/07 09:49:52;;;;;;;165.95;65.18;;;4.70;99.90;;;;;;5055794;28;20021;-72
2020/12/07 09:52:18;;;;;;;186.23;67.85;;;4.70;99.90;;;;;;5055475;28;20089;-72
2020/12/07 09:54:44;;;;;;;168.95;65.45;;;4.70;99.90;;;;;;5059859;28;20487;-72
2020/12/07 09:57:09;;;;;;;166.68;64.22;;;4.70;99.90;;;;;;5055132;28;20083;-72
2020/12/07 09:59:36;;;;;;;183.93;70.72;;;4.70;99.90;;;;;;5066492;28;20461;-72
2020/12/07 10:02:02;;;;;;;170.05;67.30;;;4.70;99.90;;;;;;5066796;28;20025;-72
2020/12/07 10:04:27;;;;;;;163.98;64.20;;;4.70;99.90;;;;;;5058421;28;20029;-72
2020/12/07 10:06:54;;;;;;;169.95;64.90;;;4.80;99.90;;;;;;5058840;28;20017;-72
2020/12/07 10:09:20;;;;;;;172.40;65.10;;;4.80;99.90;;;;;;5062754;28;20086;-72
2020/12/07 10:11:46;;;;;;;197.30;67.25;;;4.80;99.90;;;;;;5058474;28;20033;-72
2020/12/07 10:14:12;;;;;;;179.57;72.10;;;4.80;99.90;;;;;;5061752;28;20421;-72
2020/12/07 10:16:41;;;;;;;175.20;64.20;;;4.90;99.90;;;;;;5060943;28;20021;-72
2020/12/07 10:19:06;;;;;;;170.40;63.13;;;4.90;99.90;;;;;;5061342;28;20144;-71
2020/12/07 10:21:33;;;;;;;180.27;64.75;;;4.90;99.90;;;;;;5067148;28;20103;-72
2020/12/07 10:23:59;;;;;;;169.73;61.50;;;5.00;99.90;;;;;;5065984;28;20029;-72
2020/12/07 10:26:25;;;;;;;179.40;66.93;;;5.00;99.90;;;;;;5057565;28;20070;-72
2020/12/07 10:28:54;;;;;;;179.85;65.22;;;5.00;99.90;;;;;;5059974;28;20373;-72
2020/12/07 10:31:20;;;;;;;177.60;66.03;;;5.00;99.90;;;;;;5058177;28;20029;-72
2020/12/07 10:33:47;;;;;;;180.45;64.97;;;4.90;99.90;;;;;;5068056;28;20480;-72
2020/12/07 10:36:13;;;;;;;159.50;61.10;;;4.90;99.90;;;;;;5065891;28;20381;-72
2020/12/07 10:38:39;;;;;;;155.10;57.47;;;4.90;99.90;;;;;;5059137;28;20028;-72
2020/12/07 10:41:04;;;;;;;150.27;58.97;;;4.90;99.90;;;;;;5060880;28;20079;-72
2020/12/07 10:43:30;;;;;;;165.25;63.55;;;4.90;99.90;;;;;;5061500;28;20021;-72
2020/12/07 10:45:56;;;;;;;153.25;56.63;;;4.90;99.90;;;;;;5054644;28;20021;-72
2020/12/07 10:48:22;;;;;;;146.82;56.60;;;4.90;99.90;;;;;;5059963;28;20021;-72
2020/12/07 10:50:48;;;;;;;156.20;60.03;;;4.90;99.90;;;;;;5056300;28;20163;-72
2020/12/07 10:53:13;;;;;;;147.98;61.10;;;4.90;99.90;;;;;;5053840;28;20509;-72
2020/12/07 10:55:40;;;;;;;137.93;55.28;;;4.80;99.90;;;;;;5059105;28;20085;-72
2020/12/07 10:58:06;;;;;;;132.88;53.33;;;4.90;99.90;;;;;;5056320;28;20067;-72
2020/12/07 11:00:31;;;;;;;151.93;60.38;;;4.90;99.90;;;;;;5055064;28;20044;-72
2020/12/07 11:02:57;;;;;;;143.85;55.08;;;5.00;99.90;;;;;;5053864;28;20021;-72
2020/12/07 11:05:22;;;;;;;134.52;55.55;;;5.10;99.90;;;;;;5053384;28;20059;-72
2020/12/07 11:07:51;;;;;;;160.93;58.22;;;5.00;99.90;;;;;;5055284;28;20025;-72
2020/12/07 11:10:16;;;;;;;144.63;56.95;;;5.00;99.90;;;;;;5062104;28;20057;-71
2020/12/07 11:12:45;;;;;;;135.98;55.92;;;5.10;99.90;;;;;;5054667;28;20056;-72
2020/12/07 11:15:10;;;;;;;153.40;54.17;;;5.10;99.90;;;;;;5061864;28;20431;-72
2020/12/07 11:17:36;;;;;;;145.30;55.03;;;5.10;99.90;;;;;;5062774;28;20025;-71
2020/12/07 11:20:02;;;;;;;154.80;56.47;;;5.10;99.90;;;;;;5064481;28;20060;-71
2020/12/07 11:22:28;;;;;;;149.60;58.70;;;5.10;99.90;;;;;;5061251;28;20036;-72
2020/12/07 11:24:54;;;;;;;145.57;57.55;;;5.10;99.90;;;;;;5053563;28;20473;-72
2020/12/07 11:27:19;;;;;;;138.35;55.10;;;5.20;99.90;;;;;;5058502;28;20032;-72
2020/12/07 11:29:45;;;;;;;137.70;54.40;;;5.30;99.90;;;;;;5051601;28;20021;-72
2020/12/07 11:32:10;;;;;;;160.77;62.05;;;5.30;99.90;;;;;;5050851;28;20527;-71
2020/12/07 11:34:36;;;;;;;158.40;59.70;;;5.30;99.90;;;;;;5051274;28;20029;-72
2020/12/07 11:37:02;;;;;;;129.95;52.30;;;5.30;99.90;;;;;;5058149;28;20094;-71
2020/12/07 11:39:40;;;;;;;132.55;54.10;;;5.30;99.90;;;;;;5053027;28;20355;-72
2020/12/07 11:42:22;;;;;;;134.15;54.47;;;5.30;99.90;;;;;;5053360;28;20029;-72
2020/12/07 11:44:48;;;;;;;143.07;56.28;;;5.30;99.90;;;;;;5056117;28;20021;-72
2020/12/07 11:47:14;;;;;;;138.57;56.08;;;5.30;99.90;;;;;;5057602;28;20099;-72
2020/12/07 11:49:41;;;;;;;131.93;55.88;;;5.30;99.90;;;;;;5053525;28;20536;-71
2020/12/07 11:52:07;;;;;;;126.20;55.85;;;5.30;99.90;;;;;;5054318;28;20361;-72
2020/12/07 11:54:35;;;;;;;128.93;54.15;;;5.20;99.90;;;;;;5054505;28;20025;-72
2020/12/07 11:57:07;;;;;;;134.10;57.88;;;5.30;99.90;;;;;;5055941;28;20044;-71
2020/12/07 11:59:33;;;;;;;140.90;62.40;;;5.30;99.90;;;;;;5051197;28;20017;-72
2020/12/07 12:01:59;;;;;;;136.90;58.90;;;5.20;99.90;;;;;;5051854;28;20029;-71
2020/12/07 12:04:24;;;;;;;134.80;57.70;;;5.30;99.90;;;;;;5051600;28;20013;-71
2020/12/07 12:06:50;;;;;;;131.15;58.45;;;5.30;99.90;;;;;;5050830;28;20107;-71
2020/12/07 12:09:15;;;;;;;141.25;58.03;;;5.30;99.90;;;;;;5053374;28;20028;-72
2020/12/07 12:11:43;;;;;;;142.48;58.85;;;5.40;99.90;;;;;;5055161;28;20051;-71
2020/12/07 12:14:10;;;;;;;147.48;57.60;;;5.40;99.90;;;;;;5051455;28;20025;-72
2020/12/07 12:16:38;;;;;;;135.25;57.67;;;5.30;99.90;;;;;;5051901;28;20512;-71
2020/12/07 12:19:08;;;;;;;153.80;60.95;;;5.30;99.90;;;;;;5062674;28;20074;-72
2020/12/07 12:21:35;;;;;;;157.93;62.55;;;5.30;99.90;;;;;;5058508;28;20025;-73
2020/12/07 12:24:04;;;;;;;150.93;58.80;;;5.30;99.90;;;;;;5052033;28;20024;-72
2020/12/07 12:26:32;;;;;;;149.98;57.85;;;5.40;99.90;;;;;;5051258;28;20020;-72
2020/12/07 12:28:57;;;;;;;142.75;56.05;;;5.40;99.90;;;;;;5050867;28;20033;-72
2020/12/07 12:31:23;;;;;;;160.00;61.95;;;5.30;99.90;;;;;;5049210;28;20044;-73
2020/12/07 12:33:49;;;;;;;139.20;58.20;;;5.40;99.90;;;;;;5051950;28;20032;-73
2020/12/07 12:36:19;;;;;;;156.88;60.08;;;5.40;99.90;;;;;;5062809;28;20116;-72
2020/12/07 12:38:46;;;;;;;146.13;58.83;;;5.30;99.90;;;;;;5059170;28;20025;-73
2020/12/07 12:41:12;;;;;;;142.00;55.90;;;5.40;99.90;;;;;;5067016;28;20036;-72
2020/12/07 12:43:38;;;;;;;149.00;56.22;;;5.30;99.90;;;;;;5058981;28;20098;-72
2020/12/07 12:46:04;;;;;;;143.20;56.42;;;5.30;99.90;;;;;;5052618;28;20032;-72
2020/12/07 12:48:31;;;;;;;150.07;58.40;;;5.40;99.90;;;;;;5051825;28;20049;-72
2020/12/07 12:50:57;;;;;;;148.75;56.17;;;5.40;99.90;;;;;;5054390;28;20032;-72
2020/12/07 12:53:22;;;;;;;145.55;56.33;;;5.40;99.90;;;;;;5058454;28;20104;-72
2020/12/07 12:55:48;;;;;;;155.95;56.33;;;5.40;99.90;;;;;;5051079;28;20037;-72
2020/12/07 12:58:14;;;;;;;156.38;58.65;;;5.50;99.90;;;;;;5051340;28;20108;-72
2020/12/07 13:00:39;;;;;;;136.63;54.13;;;5.50;99.90;;;;;;5051483;28;20033;-72
2020/12/07 13:03:05;;;;;;;143.40;55.83;;;5.60;99.90;;;;;;5051172;28;20033;-72